Solicitamos su permiso para obtener datos estadísticos de su navegación en esta web, en cumplimiento del Real Decreto-ley 13/2012. Si continúa navegando consideramos que acepta el uso de cookies. OK | Más información

MAPA DE AEROPUERTO

INFORMACIÓN METAR y TAF

METAR FOR VNKT
ADDS - METARS form results

(0346 UTC 18 January 2018)
Data provider http://aviationweather.gov/adds/metars/
 
METAR text: VNKT 180320Z 00000KT 1000 BR FEW010 09/06 Q1019 NOSIG
Conditions at: VNKT (KATHMANDU INTL A, NP) observed 0320 UTC 18 January 2018
Temperature: 9.0°C (48°F)
Dewpoint: 6.0°C (43°F) [RH = 81%]
Pressure (altimeter): 30.09 inches Hg (1019.0 mb)
Winds: calm
Visibility: 0.62 miles (1.00 km)
Ceiling: at least 12,000 feet AGL
Clouds: few clouds at 1000 feet AGL
Weather: BR  (mist)

METAR text: VNKT 180250Z VRB02KT 0800 FG FEW008 07/06 Q1019 NOSIG
Conditions at: VNKT (KATHMANDU INTL A, NP) observed 0250 UTC 18 January 2018
Temperature: 7.0°C (45°F)
Dewpoint: 6.0°C (43°F) [RH = 93%]
Pressure (altimeter): 30.09 inches Hg (1019.0 mb)
Winds: variable direction winds at 2 MPH (2 knots; 1.0 m/s)
Visibility: 0.50 miles (0.80 km)
Ceiling: at least 12,000 feet AGL
Clouds: few clouds at 800 feet AGL
Weather: FG  (fog)

Forecast for: VNKT (KATHMANDU INTL A, NP)
Text: TAF VNKT 172300Z 1800/1824 00000KT 3000 BR FEW010
Forecast period: 0000 to 0400 UTC 18 January 2018
Forecast type: FROM: standard forecast or significant change
Winds: calm
Visibility: 1.86 miles (2.99 km)
Clouds: few clouds at 1000 feet AGL
Weather: BR  (mist)
Text: PROB40 1800/1803 0800 FG
Forecast period: 0000 to 0300 UTC 18 January 2018
Forecast type: PROBABLE: 40 percent likelihood of the following during this time
Visibility: 0.50 miles (0.80 km)
Weather: FG  (fog)
Text: BECMG 1804/1805 11003KT 4000 BR/HZ FEW015
Forecast period: 0400 to 0600 UTC 18 January 2018
Forecast type: BECOMING: Conditions expected to become as follows by 0500 UTC 18 January 2018
Winds: from the ESE (110 degrees) at 3 MPH (3 knots; 1.6 m/s)
Visibility: 2.49 miles (4.01 km)
Clouds: few clouds at 1500 feet AGL
Weather: HZ BR  (haze, mist)
Text: BECMG 1806/1807 22008KT 7000 FEW020
Forecast period: 0600 to 1400 UTC 18 January 2018
Forecast type: BECOMING: Conditions expected to become as follows by 0700 UTC 18 January 2018
Winds: from the SW (220 degrees) at 9 MPH (8 knots; 4.2 m/s)
Visibility: 4 miles (7 km)
Clouds: few clouds at 2000 feet AGL
Weather: HZ BR  (haze, mist)
Text: BECMG 1814/1815 00000KT 5000 BR FEW015
Forecast period: 1400 UTC 18 January 2018 to 0000 UTC 19 January 2018
Forecast type: BECOMING: Conditions expected to become as follows by 1500 UTC 18 January 2018
Winds: calm
Visibility: 3 miles (5 km)
Clouds: few clouds at 1500 feet AGL
Weather: BR  (mist)